createdAt,value
2022-12-19T00:04:39.402Z,101442.34
2022-12-19T00:09:41.214Z,101416.22
2022-12-19T00:14:43.072Z,101403.31
2022-12-19T00:19:44.664Z,101391.31
2022-12-19T00:24:46.436Z,101388.00
2022-12-19T00:29:49.005Z,101380.22
2022-12-19T00:34:50.731Z,101362.84
2022-12-19T00:39:52.532Z,101368.25
2022-12-19T00:44:54.203Z,101391.75
2022-12-19T00:49:56.031Z,101381.63
2022-12-19T00:54:57.704Z,101376.50
2022-12-19T00:59:59.432Z,101379.81
2022-12-19T01:05:02.082Z,101394.16
2022-12-19T01:10:05.140Z,101409.94
2022-12-19T01:15:07.440Z,101418.59
2022-12-19T01:20:11.177Z,101419.84
2022-12-19T01:25:14.095Z,101429.00
2022-12-19T01:30:16.348Z,101426.00
2022-12-19T01:35:21.364Z,101437.47
2022-12-19T01:40:24.217Z,101410.47
2022-12-19T01:45:36.598Z,101412.56
2022-12-19T01:51:01.784Z,101408.47
2022-12-19T01:56:10.003Z,101403.97
2022-12-19T02:01:12.157Z,101390.06
2022-12-19T02:06:16.771Z,101382.50
2022-12-19T02:11:18.682Z,101391.78
2022-12-19T02:16:31.914Z,101396.66
2022-12-19T02:21:55.594Z,101395.09
2022-12-19T02:27:06.000Z,101362.63
2022-12-19T02:32:28.958Z,101391.94
2022-12-19T02:37:34.646Z,101395.25
2022-12-19T02:42:46.623Z,101411.38
2022-12-19T02:47:48.831Z,101414.53
2022-12-19T02:52:50.860Z,101421.84
2022-12-19T02:58:01.489Z,101423.56
2022-12-19T03:03:45.175Z,101431.25
2022-12-19T03:09:20.748Z,101433.81
2022-12-19T03:14:23.902Z,101421.22
2022-12-19T03:19:29.005Z,101413.91
2022-12-19T03:24:30.854Z,101411.59
2022-12-19T03:29:49.589Z,101406.72
2022-12-19T03:34:57.825Z,101393.19
2022-12-19T03:40:03.122Z,101378.63
2022-12-19T03:45:06.594Z,101359.84
2022-12-19T03:50:09.336Z,101358.03
2022-12-19T03:55:18.210Z,101365.81
2022-12-19T04:00:20.996Z,101351.31
2022-12-19T04:05:26.192Z,101349.31
2022-12-19T04:10:29.026Z,101340.78
2022-12-19T04:15:50.125Z,101334.44
2022-12-19T04:21:11.727Z,101333.00
2022-12-19T04:26:16.486Z,101322.75
2022-12-19T04:31:20.052Z,101322.63
2022-12-19T04:36:21.828Z,101314.88
2022-12-19T04:41:23.697Z,101320.69
2022-12-19T04:46:25.503Z,101317.59
2022-12-19T04:51:32.150Z,101312.53
2022-12-19T04:56:33.764Z,101323.53
2022-12-19T05:01:35.854Z,101332.06
2022-12-19T05:06:43.389Z,101328.22
2022-12-19T05:11:45.005Z,101325.53
2022-12-19T05:16:46.825Z,101300.31
2022-12-19T05:21:48.866Z,101301.06
2022-12-19T05:26:50.745Z,101285.66
2022-12-19T05:31:56.985Z,101290.94
2022-12-19T05:36:59.379Z,101295.91
2022-12-19T05:42:02.001Z,101290.88
2022-12-19T05:47:03.617Z,101276.78
2022-12-19T05:52:05.665Z,101284.28
2022-12-19T05:57:09.699Z,101283.56
2022-12-19T06:02:11.374Z,101281.06
2022-12-19T06:07:16.573Z,101267.22
2022-12-19T06:12:23.075Z,101254.97
2022-12-19T06:17:24.788Z,101246.06
2022-12-19T06:22:31.444Z,101251.22
2022-12-19T06:27:33.679Z,101278.69
2022-12-19T06:32:38.355Z,101291.44
2022-12-19T06:37:40.271Z,101304.59
2022-12-19T06:42:50.036Z,101294.19
2022-12-19T06:47:51.881Z,101292.97
2022-12-19T06:52:53.540Z,101298.78
2022-12-19T06:57:55.402Z,101291.81
2022-12-19T07:02:59.682Z,101298.78
2022-12-19T07:08:01.708Z,101277.13
2022-12-19T07:13:04.562Z,101298.84
2022-12-19T07:18:10.033Z,101306.84
2022-12-19T07:23:16.524Z,101327.16
2022-12-19T07:28:18.652Z,101340.94
2022-12-19T07:33:22.262Z,101327.06
2022-12-19T07:38:24.390Z,101306.13
2022-12-19T07:43:26.057Z,101307.50
2022-12-19T07:48:30.672Z,101312.22
2022-12-19T07:53:37.475Z,101320.44
2022-12-19T07:58:39.146Z,101326.97
2022-12-19T08:03:40.871Z,101337.19
2022-12-19T08:08:42.460Z,101356.84
2022-12-19T08:13:46.684Z,101330.31
2022-12-19T08:18:48.474Z,101322.56
2022-12-19T08:23:50.400Z,101314.09
2022-12-19T08:28:53.664Z,101322.53
2022-12-19T08:33:57.001Z,101319.66
2022-12-19T08:38:58.852Z,101331.03
2022-12-19T08:44:01.933Z,101333.16
2022-12-19T08:49:03.815Z,101330.31
2022-12-19T08:54:07.944Z,101312.28
2022-12-19T08:59:13.569Z,101317.63
2022-12-19T09:05:58.358Z,101337.78
2022-12-19T09:09:44.508Z,101348.00
2022-12-19T09:14:46.356Z,101348.53
2022-12-19T09:19:48.493Z,101355.44
2022-12-19T09:24:50.298Z,101363.16
2022-12-19T09:29:51.888Z,101349.31
2022-12-19T09:34:53.651Z,101349.75
2022-12-19T09:39:58.774Z,101366.59
2022-12-19T09:45:31.840Z,101377.59
2022-12-19T09:51:10.491Z,101382.63
2022-12-19T09:56:16.128Z,101390.91
2022-12-19T10:01:29.681Z,101399.84
2022-12-19T10:07:20.360Z,101387.44
2022-12-19T10:12:39.749Z,101374.63
2022-12-19T10:17:57.241Z,101390.50
2022-12-19T10:23:20.791Z,101375.69
2022-12-19T10:28:58.900Z,101354.75
2022-12-19T10:34:12.936Z,101331.84
2022-12-19T10:39:31.938Z,101309.94
2022-12-19T10:44:48.018Z,101301.13
2022-12-19T10:50:08.988Z,101294.34
2022-12-19T10:55:48.174Z,101278.41
2022-12-19T11:01:20.809Z,101262.81
2022-12-19T11:06:37.731Z,101242.75
2022-12-19T11:13:01.184Z,101205.72
2022-12-19T11:26:03.758Z,101210.84
2022-12-19T11:30:36.678Z,101188.78
2022-12-19T11:30:49.026Z,101187.09
2022-12-19T11:34:06.425Z,101181.16
2022-12-19T11:39:24.998Z,101168.25
2022-12-19T11:44:32.348Z,101152.94
2022-12-19T11:49:51.683Z,101114.69
2022-12-19T11:54:59.125Z,101097.69
2022-12-19T12:00:04.983Z,101081.50
2022-12-19T12:05:29.553Z,101058.78
2022-12-19T12:15:19.055Z,101054.50
2022-12-19T12:31:02.485Z,101038.28
2022-12-19T12:31:17.332Z,101037.75
2022-12-19T12:31:43.659Z,101034.34
2022-12-19T12:35:28.857Z,101026.34
2022-12-19T12:38:47.808Z,101013.94
2022-12-19T12:44:08.648Z,101013.28
2022-12-19T12:49:35.835Z,101013.56
2022-12-19T12:54:41.841Z,101007.25
2022-12-19T12:59:46.026Z,101011.97
2022-12-19T13:04:56.549Z,101007.38
2022-12-19T13:10:18.067Z,101006.03
2022-12-19T13:15:22.827Z,100992.50
2022-12-19T13:20:24.888Z,100987.66
2022-12-19T13:25:38.411Z,100991.56
2022-12-19T13:31:21.188Z,100997.91
2022-12-19T13:39:49.333Z,101010.81
2022-12-19T13:42:35.861Z,101016.63
2022-12-19T13:47:41.909Z,101004.25
2022-12-19T13:52:49.042Z,101011.41
2022-12-19T13:57:54.896Z,101007.84
2022-12-19T14:02:59.230Z,101005.66
2022-12-19T14:08:06.891Z,101006.72
2022-12-19T14:13:43.389Z,100993.53
2022-12-19T14:18:57.022Z,100992.84
2022-12-19T14:24:25.078Z,100987.59
2022-12-19T14:30:02.428Z,100981.84
2022-12-19T14:36:06.823Z,100986.75
2022-12-19T14:40:32.337Z,100978.59
2022-12-19T14:52:35.579Z,100966.84
2022-12-19T14:54:24.628Z,100976.78
2022-12-19T14:57:00.335Z,100959.53
2022-12-19T15:02:05.949Z,100959.09
2022-12-19T15:07:21.095Z,100959.34
2022-12-19T15:14:52.117Z,100959.03
2022-12-19T15:18:34.337Z,100949.81
2022-12-19T15:23:36.317Z,100946.19
2022-12-19T15:28:51.033Z,100932.22
2022-12-19T15:34:32.311Z,100924.25
2022-12-19T15:39:17.535Z,100917.66
2022-12-19T15:44:26.267Z,100916.69
2022-12-19T15:49:28.027Z,100916.22
2022-12-19T15:59:52.031Z,100896.72
2022-12-19T16:04:59.800Z,100884.31
2022-12-19T16:10:05.598Z,100882.50
2022-12-19T16:15:15.435Z,100884.72
2022-12-19T16:20:24.102Z,100900.34
2022-12-19T16:25:38.624Z,100902.38
2022-12-19T16:30:43.508Z,100918.00
2022-12-19T16:41:23.604Z,100923.72
2022-12-19T16:46:31.100Z,100920.41
2022-12-19T16:51:32.984Z,100927.25
2022-12-19T16:56:38.621Z,100930.59
2022-12-19T17:01:41.793Z,100941.94
2022-12-19T17:06:43.791Z,100939.59
2022-12-19T17:11:48.968Z,100948.53
2022-12-19T17:16:54.629Z,100944.06
2022-12-19T17:21:56.228Z,100945.75
2022-12-19T17:26:57.859Z,100943.75
2022-12-19T17:31:59.647Z,100932.06
2022-12-19T17:37:04.457Z,100924.81
2022-12-19T17:42:37.568Z,100913.06
2022-12-19T17:47:39.624Z,100911.16
2022-12-19T17:52:41.181Z,100905.38
2022-12-19T17:57:42.803Z,100911.44
2022-12-19T18:02:46.323Z,100905.13
2022-12-19T18:07:49.889Z,100904.03
2022-12-19T18:12:51.597Z,100909.72
2022-12-19T18:17:53.935Z,100910.81
2022-12-19T18:22:56.347Z,100900.38
2022-12-19T18:27:58.533Z,100901.03
2022-12-19T18:33:02.178Z,100902.88
2022-12-19T18:38:12.511Z,100906.19
2022-12-19T18:43:18.083Z,100904.44
2022-12-19T18:48:20.519Z,100895.06
2022-12-19T18:53:23.622Z,100904.53
2022-12-19T18:58:26.404Z,100903.53
2022-12-19T19:03:32.356Z,100914.41
2022-12-19T19:08:34.766Z,100917.28
2022-12-19T19:13:53.162Z,100918.25
2022-12-19T19:18:56.793Z,100928.28
2022-12-19T19:24:08.691Z,100921.13
2022-12-19T19:29:11.010Z,100922.38
2022-12-19T19:34:18.268Z,100918.97
2022-12-19T19:39:20.303Z,100919.13
2022-12-19T19:44:22.029Z,100910.88
2022-12-19T19:49:23.923Z,100913.66
2022-12-19T19:54:25.498Z,100910.81
2022-12-19T19:59:31.384Z,100913.03
2022-12-19T20:04:33.171Z,100917.44
2022-12-19T20:09:34.749Z,100910.81
2022-12-19T20:14:36.336Z,100925.97
2022-12-19T20:19:38.596Z,100923.88
2022-12-19T20:24:40.204Z,100918.03
2022-12-19T20:29:41.834Z,100933.34
2022-12-19T20:34:43.480Z,100950.34
2022-12-19T20:39:45.105Z,100937.25
2022-12-19T20:44:46.728Z,100925.94
2022-12-19T20:49:48.375Z,100920.72
2022-12-19T20:54:50.452Z,100916.94
2022-12-19T20:59:52.483Z,100913.56
2022-12-19T21:04:54.228Z,100915.03
2022-12-19T21:09:57.569Z,100909.34
2022-12-19T21:14:59.142Z,100905.91
2022-12-19T21:20:00.791Z,100910.31
2022-12-19T21:25:02.472Z,100926.69
2022-12-19T21:30:05.134Z,100924.09
2022-12-19T21:35:07.508Z,100924.47
2022-12-19T21:40:09.567Z,100922.84
2022-12-19T21:45:12.028Z,100933.88
2022-12-19T21:50:14.822Z,100933.03
2022-12-19T21:55:16.404Z,100936.34
2022-12-19T22:00:18.429Z,100934.06
2022-12-19T22:05:20.059Z,100930.88
2022-12-19T22:10:21.732Z,100937.94
2022-12-19T22:15:23.329Z,100939.94
2022-12-19T22:20:24.933Z,100942.72
2022-12-19T22:25:26.585Z,100923.94
2022-12-19T22:30:28.168Z,100922.94
2022-12-19T22:35:29.775Z,100909.19
2022-12-19T22:40:33.167Z,100907.88
2022-12-19T22:45:34.910Z,100919.16
2022-12-19T22:50:36.847Z,100921.38
2022-12-19T22:55:38.459Z,100925.38
2022-12-19T23:00:40.131Z,100920.03
2022-12-19T23:05:45.592Z,100935.44
2022-12-19T23:10:53.285Z,100943.63
2022-12-19T23:15:57.520Z,100934.56
2022-12-19T23:21:20.765Z,100923.91
2022-12-19T23:26:31.640Z,100915.41
2022-12-19T23:31:33.677Z,100932.75
2022-12-19T23:41:58.548Z,100914.88
2022-12-19T23:47:03.586Z,100910.41
2022-12-19T23:52:05.722Z,100883.19
2022-12-19T23:57:07.304Z,100874.78
